createdAt,value
2023-03-05T00:02:16.386Z,100186.45
2023-03-05T00:07:19.520Z,100182.61
2023-03-05T00:12:22.263Z,100177.84
2023-03-05T00:17:25.085Z,100178.41
2023-03-05T00:22:27.940Z,100174.68
2023-03-05T00:27:30.841Z,100172.46
2023-03-05T00:32:33.745Z,100166.39
2023-03-05T00:37:36.563Z,100165.00
2023-03-05T00:42:39.424Z,100158.05
2023-03-05T00:47:42.222Z,100150.89
2023-03-05T00:52:45.269Z,100146.89
2023-03-05T00:57:48.231Z,100138.52
2023-03-05T01:02:51.131Z,100135.75
2023-03-05T01:07:54.996Z,100132.63
2023-03-05T01:12:58.037Z,100124.69
2023-03-05T01:18:00.933Z,100124.61
2023-03-05T01:23:03.799Z,100117.02
2023-03-05T01:28:06.814Z,100107.95
2023-03-05T01:33:09.855Z,100104.91
2023-03-05T01:38:12.690Z,100101.61
2023-03-05T01:43:20.280Z,100098.46
2023-03-05T01:48:23.280Z,100093.99
2023-03-05T01:53:26.030Z,100088.26
2023-03-05T01:58:29.062Z,100089.52
2023-03-05T02:03:32.150Z,100081.11
2023-03-05T02:08:35.132Z,100079.80
2023-03-05T02:13:40.826Z,100081.33
2023-03-05T02:18:43.793Z,100079.53
2023-03-05T02:23:46.747Z,100079.40
2023-03-05T02:28:53.718Z,100076.39
2023-03-05T02:33:56.781Z,100071.56
2023-03-05T02:38:59.733Z,100066.16
2023-03-05T02:44:02.533Z,100064.67
2023-03-05T02:49:06.836Z,100060.02
2023-03-05T02:54:09.650Z,100057.44
2023-03-05T02:59:12.430Z,100052.25
2023-03-05T03:04:15.263Z,100046.27
2023-03-05T03:09:18.190Z,100045.18
2023-03-05T03:14:21.102Z,100042.96
2023-03-05T03:19:23.918Z,100045.73
2023-03-05T03:24:27.087Z,100041.50
2023-03-05T03:29:30.461Z,100035.77
2023-03-05T03:34:33.341Z,100031.24
2023-03-05T03:39:36.357Z,100027.83
2023-03-05T03:44:39.228Z,100027.89
2023-03-05T03:49:42.042Z,100020.69
2023-03-05T03:54:44.863Z,100015.11
2023-03-05T03:59:47.757Z,100010.64
2023-03-05T04:04:50.692Z,100004.83
2023-03-05T04:09:53.614Z,100005.95
2023-03-05T04:14:56.503Z,100000.55
2023-03-05T04:19:59.307Z,100003.44
2023-03-05T04:25:06.466Z,99990.38
2023-03-05T04:30:12.196Z,99987.16
2023-03-05T04:35:15.221Z,99985.04
2023-03-05T04:40:18.590Z,99981.74
2023-03-05T04:45:21.526Z,99977.08
2023-03-05T04:50:24.563Z,99972.91
2023-03-05T04:55:27.436Z,99970.23
2023-03-05T05:00:30.310Z,99965.25
2023-03-05T05:05:33.290Z,99962.26
2023-03-05T05:10:40.100Z,99957.50
2023-03-05T05:15:43.147Z,99949.41
2023-03-05T05:20:48.013Z,99945.14
2023-03-05T05:26:01.467Z,99941.45
2023-03-05T05:31:09.005Z,99939.27
2023-03-05T05:36:15.338Z,99946.55
2023-03-05T05:41:18.841Z,99942.89
2023-03-05T05:46:22.103Z,99942.41
2023-03-05T05:51:25.077Z,99940.63
2023-03-05T05:56:28.010Z,99943.25
2023-03-05T06:01:31.954Z,99939.14
2023-03-05T06:06:35.133Z,99942.00
2023-03-05T06:11:38.519Z,99939.15
2023-03-05T06:16:41.612Z,99934.23
2023-03-05T06:21:44.556Z,99936.80
2023-03-05T06:26:48.648Z,99928.60
2023-03-05T06:31:51.562Z,99917.21
2023-03-05T06:36:54.337Z,99910.21
2023-03-05T06:41:57.768Z,99902.92
2023-03-05T06:47:00.545Z,99891.64
2023-03-05T06:52:04.687Z,99887.46
2023-03-05T06:57:07.549Z,99880.08
2023-03-05T07:02:11.761Z,99873.34
2023-03-05T07:07:14.719Z,99866.95
2023-03-05T07:12:17.586Z,99850.41
2023-03-05T07:17:20.410Z,99850.69
2023-03-05T07:22:23.324Z,99825.74
2023-03-05T07:27:26.396Z,99835.30
2023-03-05T07:32:29.241Z,99848.02
2023-03-05T07:37:32.214Z,99845.45
2023-03-05T07:42:35.029Z,99838.63
2023-03-05T07:47:38.023Z,99839.95
2023-03-05T07:52:41.070Z,99836.63
2023-03-05T07:57:44.020Z,99838.80
2023-03-05T08:02:47.315Z,99838.74
2023-03-05T08:07:50.557Z,99840.60
2023-03-05T08:12:53.708Z,99838.42
2023-03-05T08:17:56.601Z,99842.33
2023-03-05T08:22:59.362Z,99840.17
2023-03-05T08:28:02.198Z,99838.13
2023-03-05T08:33:05.260Z,99841.67
2023-03-05T08:38:08.149Z,99836.71
2023-03-05T08:43:10.983Z,99834.29
2023-03-05T08:48:13.767Z,99835.89
2023-03-05T08:53:16.668Z,99834.27
2023-03-05T08:58:19.474Z,99835.09
2023-03-05T09:03:22.486Z,99825.92
2023-03-05T09:08:25.524Z,99833.28
2023-03-05T09:13:28.477Z,99823.97
2023-03-05T09:18:31.565Z,99836.31
2023-03-05T09:23:34.488Z,99832.15
2023-03-05T09:28:37.408Z,99833.02
2023-03-05T09:33:40.291Z,99833.84
2023-03-05T09:38:43.155Z,99834.75
2023-03-05T09:43:45.948Z,99833.95
2023-03-05T09:49:20.368Z,99833.61
2023-03-05T09:54:35.894Z,99830.13
2023-03-05T09:59:59.201Z,99824.98
2023-03-05T10:05:26.155Z,99823.31
2023-03-05T10:10:40.826Z,99822.16
2023-03-05T10:15:59.796Z,99816.02
2023-03-05T10:21:24.624Z,99813.79
2023-03-05T10:26:43.686Z,99815.86
2023-03-05T10:32:06.190Z,99807.91
2023-03-05T10:37:58.737Z,99804.45
2023-03-05T10:43:54.338Z,99804.08
2023-03-05T10:49:18.775Z,99799.09
2023-03-05T10:54:34.507Z,99789.98
2023-03-05T10:59:37.607Z,99791.77
2023-03-05T11:04:40.744Z,99784.32
2023-03-05T11:09:47.099Z,99781.05
2023-03-05T11:15:14.253Z,99774.38
2023-03-05T11:20:29.392Z,99761.86
2023-03-05T11:25:36.061Z,99764.59
2023-03-05T11:30:39.227Z,99765.23
2023-03-05T11:35:43.549Z,99764.77
2023-03-05T11:40:46.743Z,99763.23
2023-03-05T11:45:56.086Z,99759.66
2023-03-05T11:51:01.010Z,99750.45
2023-03-05T11:56:30.551Z,99742.88
2023-03-05T12:01:37.861Z,99735.99
2023-03-05T12:06:53.997Z,99727.51
2023-03-05T12:12:28.636Z,99725.14
2023-03-05T12:17:37.635Z,99720.61
2023-03-05T12:22:41.961Z,99716.39
2023-03-05T12:27:46.383Z,99719.58
2023-03-05T12:32:52.582Z,99715.57
2023-03-05T12:37:56.183Z,99718.79
2023-03-05T12:43:03.402Z,99713.49
2023-03-05T12:48:13.462Z,99705.97
2023-03-05T12:53:19.383Z,99698.72
2023-03-05T12:58:44.026Z,99695.59
2023-03-05T13:03:55.118Z,99688.85
2023-03-05T13:09:18.934Z,99688.86
2023-03-05T13:14:42.798Z,99687.98
2023-03-05T13:19:45.637Z,99683.44
2023-03-05T13:24:48.548Z,99679.04
2023-03-05T13:29:52.734Z,99677.42
2023-03-05T13:34:57.448Z,99678.85
2023-03-05T13:40:07.443Z,99672.56
2023-03-05T13:45:28.995Z,99670.73
2023-03-05T13:50:33.084Z,99664.84
2023-03-05T13:55:36.144Z,99656.82
2023-03-05T14:00:40.144Z,99653.69
2023-03-05T14:05:44.628Z,99651.10
2023-03-05T14:10:47.752Z,99647.86
2023-03-05T14:16:09.277Z,99644.52
2023-03-05T14:21:12.548Z,99637.70
2023-03-05T14:26:35.173Z,99629.47
2023-03-05T14:31:54.648Z,99622.23
2023-03-05T14:37:03.203Z,99619.25
2023-03-05T14:42:21.189Z,99618.70
2023-03-05T14:47:24.971Z,99616.83
2023-03-05T14:52:28.274Z,99619.36
2023-03-05T14:57:33.100Z,99615.15
2023-03-05T15:02:36.033Z,99613.20
2023-03-05T15:07:38.976Z,99615.16
2023-03-05T15:12:42.587Z,99610.93
2023-03-05T15:17:51.823Z,99601.80
2023-03-05T15:22:55.207Z,99607.86
2023-03-05T15:28:00.514Z,99610.86
2023-03-05T15:33:12.270Z,99610.77
2023-03-05T15:38:16.229Z,99615.41
2023-03-05T15:43:19.578Z,99620.02
2023-03-05T15:48:22.504Z,99623.09
2023-03-05T15:53:25.440Z,99624.16
2023-03-05T15:58:28.304Z,99624.33
2023-03-05T16:03:31.339Z,99624.70
2023-03-05T16:08:34.306Z,99624.55
2023-03-05T16:13:37.149Z,99627.27
2023-03-05T16:18:42.110Z,99626.04
2023-03-05T16:23:45.353Z,99627.70
2023-03-05T16:28:48.325Z,99629.86
2023-03-05T16:33:51.621Z,99638.99
2023-03-05T16:38:59.257Z,99638.80
2023-03-05T16:44:02.138Z,99640.46
2023-03-05T16:49:05.230Z,99645.39
2023-03-05T16:54:10.057Z,99650.23
2023-03-05T16:59:13.450Z,99649.47
2023-03-05T17:04:16.681Z,99656.13
2023-03-05T17:09:24.093Z,99659.36
2023-03-05T17:14:27.086Z,99661.41
2023-03-05T17:19:30.109Z,99657.95
2023-03-05T17:24:33.546Z,99663.14
2023-03-05T17:29:36.378Z,99660.15
2023-03-05T17:34:39.190Z,99660.36
2023-03-05T17:39:42.136Z,99660.27
2023-03-05T17:44:45.247Z,99653.95
2023-03-05T17:49:49.221Z,99653.41
2023-03-05T17:54:53.446Z,99650.38
2023-03-05T17:59:56.550Z,99649.19
2023-03-05T18:04:59.539Z,99653.86
2023-03-05T18:10:03.471Z,99654.91
2023-03-05T18:15:09.109Z,99655.08
2023-03-05T18:20:30.833Z,99658.59
2023-03-05T18:25:33.932Z,99656.83
2023-03-05T18:30:41.245Z,99657.54
2023-03-05T18:35:44.477Z,99658.09
2023-03-05T18:40:47.932Z,99657.53
2023-03-05T18:45:52.877Z,99654.34
2023-03-05T18:50:56.014Z,99652.27
2023-03-05T18:55:59.064Z,99651.31
2023-03-05T19:01:03.221Z,99652.77
2023-03-05T19:06:07.071Z,99656.34
2023-03-05T19:11:18.110Z,99653.75
2023-03-05T19:16:29.293Z,99654.48
2023-03-05T19:21:32.338Z,99651.63
2023-03-05T19:26:35.206Z,99651.92
2023-03-05T19:31:38.354Z,99655.63
2023-03-05T19:36:41.206Z,99655.19
2023-03-05T19:41:44.082Z,99656.94
2023-03-05T19:46:48.907Z,99661.48
2023-03-05T19:51:52.725Z,99656.98
2023-03-05T19:56:55.931Z,99659.69
2023-03-05T20:01:58.876Z,99662.40
2023-03-05T20:07:03.821Z,99659.94
2023-03-05T20:12:07.660Z,99657.14
2023-03-05T20:17:10.665Z,99656.00
2023-03-05T20:22:13.551Z,99656.86
2023-03-05T20:27:16.395Z,99662.38
2023-03-05T20:32:19.849Z,99664.83
2023-03-05T20:38:20.756Z,99664.19
2023-03-05T20:43:23.839Z,99669.05
2023-03-05T20:48:29.224Z,99667.90
2023-03-05T20:53:32.084Z,99664.02
2023-03-05T20:58:34.970Z,99667.58
2023-03-05T21:03:38.916Z,99664.13
2023-03-05T21:08:41.990Z,99666.33
2023-03-05T21:13:44.943Z,99660.09
2023-03-05T21:18:48.199Z,99658.00
2023-03-05T21:23:52.142Z,99661.55
2023-03-05T21:28:55.020Z,99657.56
2023-03-05T21:33:57.816Z,99654.41
2023-03-05T21:39:00.760Z,99649.77
2023-03-05T21:44:04.215Z,99651.19
2023-03-05T21:49:06.981Z,99647.21
2023-03-05T21:54:09.826Z,99643.81
2023-03-05T21:59:12.708Z,99642.40
2023-03-05T22:04:15.546Z,99639.92
2023-03-05T22:09:18.383Z,99639.08
2023-03-05T22:14:21.217Z,99637.15
2023-03-05T22:19:25.326Z,99633.25
2023-03-05T22:24:28.152Z,99632.81
2023-03-05T22:29:30.963Z,99637.10
2023-03-05T22:34:33.853Z,99638.11
2023-03-05T22:39:36.627Z,99636.95
2023-03-05T22:44:39.455Z,99637.86
2023-03-05T22:49:42.365Z,99633.31
2023-03-05T22:54:45.218Z,99634.96
2023-03-05T22:59:49.843Z,99634.63
2023-03-05T23:04:55.003Z,99635.89
2023-03-05T23:10:04.812Z,99633.58
2023-03-05T23:15:11.638Z,99633.23
2023-03-05T23:20:17.144Z,99637.70
2023-03-05T23:25:22.674Z,99641.64
2023-03-05T23:30:27.382Z,99636.16
2023-03-05T23:35:36.423Z,99628.58
2023-03-05T23:40:48.205Z,99629.05
2023-03-05T23:45:54.898Z,99630.73
2023-03-05T23:50:57.959Z,99627.37
2023-03-05T23:56:00.905Z,99632.09
